Time;durP1;ratioP1;P1;durP2;ratioP2;P2;SDS_P1;SDS_P2;PMS_P1;PMS_P2;Temp;Humidity;BMP_temperature;BMP_pressure;BME280_temperature;BME280_humidity;BME280_pressure;Samples;Min_cycle;Max_cycle;Signal;HPM_P1;HPM_P2
2022/08/28 00:02:12;;;;;;;;;;;;;;;25.70;60.58;99316.09;4438291;32;20005;-91
2022/08/28 00:04:37;;;;;;;;;;;;;;;25.45;60.56;99304.38;4438101;32;19974;-90
2022/08/28 00:07:02;;;;;;;;;;;;;;;25.60;60.56;99304.69;4438254;32;20033;-89
2022/08/28 00:09:27;;;;;;;;;;;;;;;25.37;60.55;99307.00;4438302;32;19989;-92
2022/08/28 00:12:03;;;;;;;;;;;;;;;24.97;60.53;99310.09;4438466;32;20033;-93
2022/08/28 00:14:28;;;;;;;;;;;;;;;24.97;60.53;99294.13;4438674;32;19989;-91
2022/08/28 00:16:53;;;;;;;;;;;;;;;24.96;60.54;99287.13;4438273;32;20035;-91
2022/08/28 00:19:19;;;;;;;;;;;;;;;24.76;60.53;99300.56;4438547;32;19970;-91
2022/08/28 00:21:44;;;;;;;;;;;;;;;24.69;60.53;99309.31;4438268;32;20027;-90
2022/08/28 00:24:09;;;;;;;;;;;;;;;24.56;60.51;99322.94;4437842;32;19981;-90
2022/08/28 00:29:18;;;;;;;;;;;;;;;24.59;60.51;99330.63;4438016;32;19988;-92
2022/08/28 00:31:44;;;;;;;;;;;;;;;24.45;60.51;99342.62;4425260;32;19997;-91
2022/08/28 00:34:09;;;;;;;;;;;;;;;24.45;60.51;99339.13;4438227;32;20319;-90
2022/08/28 00:36:35;;;;;;;;;;;;;;;24.46;60.52;99338.13;4438518;32;19992;-93
2022/08/28 00:39:00;;;;;;;;;;;;;;;24.37;60.51;99328.34;4438265;32;20026;-90
2022/08/28 00:41:29;;;;;;;;;;;;;;;24.16;60.49;99337.41;4425633;32;20250;-91
2022/08/28 00:44:31;;;;;;;;;;;;;;;24.09;60.49;99330.97;4438579;32;20019;-93
2022/08/28 00:46:57;;;;;;;;;;;;;;;24.13;60.50;99327.06;4386848;32;19981;-92
2022/08/28 00:49:24;;;;;;;;;;;;;;;24.02;60.49;99319.25;4438366;32;20003;-92
2022/08/28 00:52:04;;;;;;;;;;;;;;;24.06;60.49;99320.63;4439030;32;20008;-93
2022/08/28 00:54:40;;;;;;;;;;;;;;;23.89;60.49;99322.19;4429675;32;20009;-91
2022/08/28 00:57:17;;;;;;;;;;;;;;;23.82;60.48;99317.63;4440481;32;20030;-92
2022/08/28 00:59:42;;;;;;;;;;;;;;;23.88;60.49;99301.91;4440738;32;20547;-93
2022/08/28 01:02:08;;;;;;;;;;;;;;;23.87;60.48;99294.94;4427872;32;19993;-94
2022/08/28 01:04:34;;;;;;;;;;;;;;;23.86;60.48;99297.72;4437459;32;19959;-93
2022/08/28 01:06:59;;;;;;;;;;;;;;;23.83;60.47;99293.53;4454609;32;19953;-93
2022/08/28 01:09:27;;;;;;;;;;;;;;;23.75;60.47;99289.94;4443996;32;19973;-94
2022/08/28 01:11:53;;;;;;;;;;;;;;;23.70;60.47;99294.88;4440817;32;20001;-92
2022/08/28 01:14:25;;;;;;;;;;;;;;;23.67;60.47;99293.34;4440332;32;20012;-93
2022/08/28 01:16:54;;;;;;;;;;;;;;;23.65;60.46;99303.25;4440195;32;19981;-93
2022/08/28 01:19:20;;;;;;;;;;;;;;;23.64;60.46;99306.87;4439941;32;20354;-93
2022/08/28 01:21:57;;;;;;;;;;;;;;;23.55;60.46;99308.56;4439914;32;19990;-95
2022/08/28 01:24:22;;;;;;;;;;;;;;;23.62;60.47;99315.97;4441110;32;20678;-93
2022/08/28 01:26:47;;;;;;;;;;;;;;;23.69;60.47;99320.59;4428235;32;19973;-93
2022/08/28 01:29:12;;;;;;;;;;;;;;;23.52;60.46;99321.28;4432630;32;20287;-94
2022/08/28 01:31:38;;;;;;;;;;;;;;;23.55;60.46;99331.63;4441005;32;20000;-94
2022/08/28 01:34:03;;;;;;;;;;;;;;;23.63;60.46;99331.78;4440925;32;19989;-94
2022/08/28 01:36:28;;;;;;;;;;;;;;;23.59;60.47;99338.34;4440736;32;19981;-94
2022/08/28 01:38:55;;;;;;;;;;;;;;;23.55;60.46;99331.63;4440155;32;19981;-92
2022/08/28 01:41:20;;;;;;;;;;;;;;;23.60;60.47;99342.69;4440765;32;19993;-94
2022/08/28 01:43:56;;;;;;;;;;;;;;;23.64;60.47;99332.59;4440528;32;20038;-93
2022/08/28 01:46:21;;;;;;;;;;;;;;;23.56;60.46;99341.31;4440677;32;19978;-93
2022/08/28 01:51:15;;;;;;;;;;;;;;;23.37;60.45;99330.66;4471768;32;20052;-94
2022/08/28 01:53:41;;;;;;;;;;;;;;;23.34;60.46;99320.31;4459160;32;20322;-94
2022/08/28 01:56:07;;;;;;;;;;;;;;;23.29;60.45;99326.06;4459429;32;19972;-96
2022/08/28 01:58:33;;;;;;;;;;;;;;;23.45;60.46;99336.13;4459647;32;20337;-96
2022/08/28 02:00:58;;;;;;;;;;;;;;;23.50;60.47;99329.41;4459537;32;19989;-94
2022/08/28 02:03:23;;;;;;;;;;;;;;;23.37;60.45;99325.34;4457511;32;19984;-92
2022/08/28 02:05:49;;;;;;;;;;;;;;;23.18;60.44;99302.28;4457787;32;19998;-93
2022/08/28 02:08:16;;;;;;;;;;;;;;;23.14;60.44;99296.41;4457671;32;19981;-92
2022/08/28 02:10:51;;;;;;;;;;;;;;;23.18;60.44;99294.31;4458454;32;20038;-92
2022/08/28 02:13:16;;;;;;;;;;;;;;;23.25;60.44;99293.63;4458392;32;20096;-93
2022/08/28 02:15:41;;;;;;;;;;;;;;;23.29;60.45;99283.56;4457821;32;19981;-94
2022/08/28 02:18:07;;;;;;;;;;;;;;;23.14;60.44;99283.13;4457845;32;19968;-93
2022/08/28 02:20:32;;;;;;;;;;;;;;;23.29;60.45;99288.88;4458011;32;20025;-93
2022/08/28 02:22:58;;;;;;;;;;;;;;;23.40;60.45;99286.06;4457841;32;20037;-92
2022/08/28 02:25:23;;;;;;;;;;;;;;;23.17;60.44;99284.66;4459055;32;19984;-95
2022/08/28 02:27:49;;;;;;;;;;;;;;;23.13;60.44;99277.97;4458762;32;19987;-92
2022/08/28 02:30:14;;;;;;;;;;;;;;;23.19;60.45;99277.44;4457873;32;20011;-93
2022/08/28 02:32:39;;;;;;;;;;;;;;;23.03;60.44;99275.31;4457809;32;19996;-93
2022/08/28 02:35:05;;;;;;;;;;;;;;;23.07;60.43;99275.88;4444593;32;20003;-93
2022/08/28 02:37:30;;;;;;;;;;;;;;;23.18;60.45;99271.25;4444999;32;20002;-93
2022/08/28 02:39:56;;;;;;;;;;;;;;;23.24;60.44;99278.69;4445481;32;19985;-91
2022/08/28 02:42:27;;;;;;;;;;;;;;;23.35;60.46;99275.03;4457929;32;20002;-93
2022/08/28 02:44:52;;;;;;;;;;;;;;;23.27;60.45;99282.88;4457137;32;20033;-95
2022/08/28 02:47:18;;;;;;;;;;;;;;;23.41;60.45;99287.72;4445335;32;19981;-92
2022/08/28 02:49:59;;;;;;;;;;;;;;;23.37;60.45;99294.31;4445034;32;20004;-92
2022/08/28 02:52:36;;;;;;;;;;;;;;;23.01;60.43;99314.44;4458233;32;20035;-93
2022/08/28 02:55:02;;;;;;;;;;;;;;;22.87;60.43;99320.16;4457501;32;20722;-90
2022/08/28 02:57:30;;;;;;;;;;;;;;;22.87;60.42;99315.69;4444747;32;20021;-92
2022/08/28 02:59:55;;;;;;;;;;;;;;;22.80;60.43;99311.88;4444899;32;20003;-92
2022/08/28 03:02:21;;;;;;;;;;;;;;;22.82;60.42;99302.00;4444463;32;20322;-93
2022/08/28 03:04:47;;;;;;;;;;;;;;;22.91;60.43;99311.75;4444672;32;19988;-91
2022/08/28 03:07:18;;;;;;;;;;;;;;;22.84;60.42;99313.31;4457842;32;20011;-92
2022/08/28 03:09:43;;;;;;;;;;;;;;;22.55;60.40;99321.19;4457046;32;19980;-91
2022/08/28 03:12:09;;;;;;;;;;;;;;;22.46;60.40;99321.97;4471296;32;20268;-90
2022/08/28 03:14:35;;;;;;;;;;;;;;;22.32;60.39;99317.88;4443300;32;20067;-92
2022/08/28 03:17:20;;;;;;;;;;;;;;;22.32;60.40;99325.84;4456851;32;19984;-91
2022/08/28 03:19:46;;;;;;;;;;;;;;;22.41;60.41;99324.19;4457000;32;19981;-90
2022/08/28 03:22:11;;;;;;;;;;;;;;;22.35;60.40;99311.47;4456402;32;20033;-89
2022/08/28 03:24:36;;;;;;;;;;;;;;;22.29;60.39;99322.63;4456958;32;19987;-94
2022/08/28 03:27:02;;;;;;;;;;;;;;;22.19;60.40;99314.63;4444287;32;20012;-93
2022/08/28 03:29:27;;;;;;;;;;;;;;;22.17;60.38;99311.25;4444506;32;20000;-92
2022/08/28 03:31:53;;;;;;;;;;;;;;;22.29;60.40;99312.03;4444430;32;20005;-93
2022/08/28 03:34:18;;;;;;;;;;;;;;;22.24;60.39;99312.44;4456875;32;19976;-92
2022/08/28 03:36:43;;;;;;;;;;;;;;;22.42;60.41;99307.31;4444322;32;19980;-93
2022/08/28 03:39:08;;;;;;;;;;;;;;;22.43;60.40;99305.50;4443876;32;20057;-94
2022/08/28 03:41:34;;;;;;;;;;;;;;;22.78;60.42;99303.22;4444183;32;20153;-90
2022/08/28 03:43:59;;;;;;;;;;;;;;;22.52;60.41;99308.19;4444530;32;20024;-92
2022/08/28 03:46:24;;;;;;;;;;;;;;;22.42;60.41;99302.00;4444740;32;19991;-94
2022/08/28 03:49:23;;;;;;;;;;;;;;;22.48;60.41;99304.12;4443452;32;20281;-92
2022/08/28 03:51:48;;;;;;;;;;;;;;;22.46;60.40;99299.91;4446359;32;19981;-94
2022/08/28 03:57:28;;;;;;;;;;;;;;;22.85;60.42;99285.78;4469989;32;20028;-94
2022/08/28 03:59:54;;;;;;;;;;;;;;;23.06;60.43;99282.16;4444855;32;20001;-95
2022/08/28 04:02:19;;;;;;;;;;;;;;;23.02;60.42;99283.44;4445008;32;20038;-94
2022/08/28 04:04:48;;;;;;;;;;;;;;;23.15;60.43;99276.84;4444764;32;19977;-93
2022/08/28 04:07:13;;;;;;;;;;;;;;;23.05;60.43;99277.84;4443724;32;19995;-92
2022/08/28 04:09:38;;;;;;;;;;;;;;;22.99;60.43;99278.41;4443611;32;20000;-92
2022/08/28 04:12:03;;;;;;;;;;;;;;;22.94;60.42;99279.63;4443799;32;20033;-91
2022/08/28 04:14:29;;;;;;;;;;;;;;;23.02;60.43;99281.62;4443983;32;20410;-93
2022/08/28 04:16:54;;;;;;;;;;;;;;;23.01;60.42;99279.94;4456344;32;19988;-93
2022/08/28 04:19:20;;;;;;;;;;;;;;;23.06;60.43;99277.69;4456487;32;20062;-94
2022/08/28 04:21:45;;;;;;;;;;;;;;;22.97;60.43;99273.25;4454908;32;19965;-93
2022/08/28 04:24:12;;;;;;;;;;;;;;;23.13;60.44;99280.62;4444655;32;20219;-92
2022/08/28 04:26:37;;;;;;;;;;;;;;;23.19;60.44;99280.91;4458863;32;20033;-93
2022/08/28 04:29:02;;;;;;;;;;;;;;;;;;4445538;32;20010;-93
2022/08/28 04:31:27;;;;;;;;;;;;;;;22.91;60.42;99285.22;4458783;32;19989;-94
2022/08/28 04:33:52;;;;;;;;;;;;;;;22.87;60.42;99290.94;4447070;32;19973;-95
2022/08/28 04:36:18;;;;;;;;;;;;;;;23.03;60.42;99285.94;4446356;32;19989;-92
2022/08/28 04:38:44;;;;;;;;;;;;;;;23.04;60.43;99292.94;4445409;32;20010;-92
2022/08/28 04:41:12;;;;;;;;;;;;;;;23.06;60.43;99295.44;4458620;32;19989;-95
2022/08/28 04:43:38;;;;;;;;;;;;;;;23.20;60.44;99300.34;4460771;32;20678;-94
2022/08/28 04:46:04;;;;;;;;;;;;;;;23.23;60.44;99306.22;4447302;32;19977;-95
2022/08/28 04:48:29;;;;;;;;;;;;;;;23.27;60.44;99304.94;4447368;32;19989;-95
2022/08/28 04:50:55;;;;;;;;;;;;;;;23.32;60.44;99307.19;4446610;32;19988;-95
2022/08/28 04:53:20;;;;;;;;;;;;;;;23.44;60.46;99305.22;4446823;32;19995;-95
2022/08/28 04:55:46;;;;;;;;;;;;;;;23.45;60.45;99305.09;4447152;32;20351;-95
2022/08/28 04:58:12;;;;;;;;;;;;;;;23.57;60.45;99311.09;4445840;32;20047;-94
2022/08/28 05:00:37;;;;;;;;;;;;;;;23.60;60.46;99312.63;4445589;32;20090;-95
2022/08/28 05:03:03;;;;;;;;;;;;;;;23.58;60.46;99310.94;4459424;32;20293;-95
2022/08/28 05:05:28;;;;;;;;;;;;;;;23.63;60.46;99323.81;4445864;32;19976;-90
2022/08/28 05:07:53;;;;;;;;;;;;;;;23.79;60.47;99323.22;4444722;32;19984;-92
2022/08/28 05:10:19;;;;;;;;;;;;;;;24.01;60.48;99325.53;4457702;32;20024;-92
2022/08/28 05:12:44;;;;;;;;;;;;;;;24.21;60.50;99325.47;4445884;32;19977;-94
2022/08/28 05:15:09;;;;;;;;;;;;;;;24.19;60.49;99323.81;4445275;32;20061;-90
2022/08/28 05:17:35;;;;;;;;;;;;;;;24.22;60.49;99322.66;4457335;32;19985;-90
2022/08/28 05:20:01;;;;;;;;;;;;;;;24.45;60.51;99325.81;4457476;32;20007;-89
2022/08/28 05:22:27;;;;;;;;;;;;;;;24.71;60.52;99323.28;4443824;32;20075;-89
2022/08/28 05:24:53;;;;;;;;;;;;;;;24.60;60.52;99315.50;4457465;32;19990;-90
2022/08/28 05:27:18;;;;;;;;;;;;;;;24.78;60.52;99314.56;4457620;32;20281;-89
2022/08/28 05:29:43;;;;;;;;;;;;;;;24.93;60.53;99314.06;4471601;32;19998;-90
2022/08/28 05:32:09;;;;;;;;;;;;;;;25.14;60.53;99305.78;4456927;32;21278;-90
2022/08/28 05:34:34;;;;;;;;;;;;;;;25.19;60.54;99300.84;4456741;32;25628;-89
2022/08/28 05:36:59;;;;;;;;;;;;;;;25.18;60.54;99307.16;4456707;32;20398;-89
2022/08/28 05:39:24;;;;;;;;;;;;;;;25.27;60.54;99307.06;4457045;32;20004;-91
2022/08/28 05:41:50;;;;;;;;;;;;;;;25.23;60.55;99305.69;4444398;32;20040;-91
2022/08/28 05:44:15;;;;;;;;;;;;;;;25.45;60.55;99298.22;4457652;32;19988;-91
2022/08/28 05:46:41;;;;;;;;;;;;;;;25.51;60.56;99301.09;4457027;32;19989;-91
2022/08/28 05:49:07;;;;;;;;;;;;;;;25.61;60.56;99306.34;4471705;32;19981;-91
2022/08/28 05:51:33;;;;;;;;;;;;;;;25.75;60.56;99303.12;4471813;32;20021;-91
2022/08/28 05:53:59;;;;;;;;;;;;;;;25.93;60.58;99301.25;4446455;32;19980;-93
2022/08/28 05:56:31;;;;;;;;;;;;;;;26.07;60.58;99304.34;4472056;32;20015;-92
2022/08/28 05:59:15;;;;;;;;;;;;;;;26.14;60.59;99305.38;4453856;32;20015;-92
2022/08/28 06:01:45;;;;;;;;;;;;;;;26.35;60.60;99311.16;4458243;32;19977;-95
2022/08/28 06:04:17;;;;;;;;;;;;;;;26.68;60.62;99303.25;4445828;32;19980;-94
2022/08/28 06:06:43;;;;;;;;;;;;;;;26.89;60.63;99301.81;4445899;32;19993;-94
2022/08/28 06:09:08;;;;;;;;;;;;;;;27.16;60.64;99303.38;4458369;32;19988;-94
2022/08/28 06:11:33;;;;;;;;;;;;;;;27.24;60.64;99305.25;4457437;32;20000;-93
2022/08/28 06:14:00;;;;;;;;;;;;;;;27.54;60.66;99301.06;4445345;32;19995;-93
2022/08/28 06:16:25;;;;;;;;;;;;;;;27.64;60.66;99307.09;4445412;32;20000;-94
2022/08/28 06:18:51;;;;;;;;;;;;;;;27.80;60.67;99306.22;4445765;32;19985;-96
2022/08/28 06:21:17;;;;;;;;;;;;;;;27.83;60.68;99306.72;4448275;32;19981;-96
2022/08/28 06:23:53;;;;;;;;;;;;;;;28.09;60.69;99308.31;4450155;32;19977;-94
2022/08/28 06:26:51;;;;;;;;;;;;;;;28.15;60.69;99307.63;4465101;32;20575;-96
2022/08/28 06:29:18;;;;;;;;;;;;;;;28.39;60.70;99312.97;4452562;32;20042;-96
2022/08/28 06:31:43;;;;;;;;;;;;;;;28.52;60.70;99314.22;4451896;32;19991;-95
2022/08/28 06:34:09;;;;;;;;;;;;;;;28.65;60.71;99318.03;4452887;32;19977;-96
2022/08/28 06:36:40;;;;;;;;;;;;;;;28.76;60.71;99316.78;4454204;32;20003;-96
2022/08/28 06:39:06;;;;;;;;;;;;;;;28.94;60.74;99317.38;4467309;32;19964;-96
2022/08/28 06:41:34;;;;;;;;;;;;;;;28.85;60.72;99325.59;4467731;32;19960;-96
2022/08/28 06:44:02;;;;;;;;;;;;;;;29.02;60.74;99328.03;4455788;32;19966;-96
2022/08/28 06:46:32;;;;;;;;;;;;;;;29.09;60.73;99324.63;4468898;32;19964;-96
2022/08/28 06:49:03;;;;;;;;;;;;;;;29.14;60.74;99323.13;4480954;32;19956;-96
2022/08/28 06:51:33;;;;;;;;;;;;;;;29.33;60.75;99322.59;4464686;32;19988;-94
2022/08/28 06:53:59;;;;;;;;;;;;;;;29.40;60.75;99327.28;4444753;32;19953;-93
2022/08/28 06:56:24;;;;;;;;;;;;;;;29.24;60.74;99331.75;4444190;32;20136;-93
2022/08/28 06:58:49;;;;;;;;;;;;;;;29.04;60.74;99339.41;4444639;32;20274;-94
2022/08/28 07:01:16;;;;;;;;;;;;;;;28.93;60.72;99337.16;4444309;32;19984;-94
2022/08/28 07:03:41;;;;;;;;;;;;;;;28.84;60.72;99343.50;4444615;32;20374;-93
2022/08/28 07:06:07;;;;;;;;;;;;;;;29.01;60.74;99342.44;4444925;32;20003;-93
2022/08/28 07:08:33;;;;;;;;;;;;;;;29.19;60.75;99346.69;4444991;32;19996;-94
2022/08/28 07:10:59;;;;;;;;;;;;;;;29.32;60.75;99353.13;4444795;32;19977;-94
2022/08/28 07:13:31;;;;;;;;;;;;;;;29.35;60.75;99346.59;4457526;32;20022;-93
2022/08/28 07:15:57;;;;;;;;;;;;;;;29.36;60.75;99355.47;4444342;32;20405;-93
2022/08/28 07:18:22;;;;;;;;;;;;;;;29.34;60.75;99356.47;4457214;32;19989;-93
2022/08/28 07:20:53;;;;;;;;;;;;;;;29.47;60.76;99349.69;4444430;32;20341;-92
2022/08/28 07:23:18;;;;;;;;;;;;;;;29.21;60.74;99358.91;4444665;32;20367;-94
2022/08/28 07:26:03;;;;;;;;;;;;;;;29.21;60.75;99360.75;4444901;32;19985;-93
2022/08/28 07:28:28;;;;;;;;;;;;;;;29.02;60.74;99362.03;4444538;32;20052;-94
2022/08/28 07:30:54;;;;;;;;;;;;;;;28.91;60.73;99371.31;4444695;32;20014;-93
2022/08/28 07:33:19;;;;;;;;;;;;;;;28.88;60.74;99379.72;4445099;32;19972;-93
2022/08/28 07:35:45;;;;;;;;;;;;;;;29.01;60.75;99371.91;4443903;32;20985;-93
2022/08/28 07:38:10;;;;;;;;;;;;;;;28.76;60.72;99370.34;4444322;32;20039;-94
2022/08/28 07:40:35;;;;;;;;;;;;;;;28.86;60.74;99376.34;4443790;32;20014;-93
2022/08/28 07:45:44;;;;;;;;;;;;;;;29.02;60.74;99362.88;4459160;32;19992;-93
2022/08/28 07:48:10;;;;;;;;;;;;;;;28.93;60.73;99377.34;4443818;32;20076;-94
2022/08/28 07:50:36;;;;;;;;;;;;;;;29.02;60.74;99367.41;4440992;32;19984;-93
2022/08/28 07:53:01;;;;;;;;;;;;;;;29.20;60.75;99375.16;4428414;32;20031;-92
2022/08/28 07:55:28;;;;;;;;;;;;;;;29.13;60.75;99369.69;4441814;32;20016;-92
2022/08/28 07:57:54;;;;;;;;;;;;;;;29.15;60.74;99378.38;4429437;32;20015;-92
2022/08/28 08:00:19;;;;;;;;;;;;;;;29.05;60.74;99375.06;4443274;32;20250;-93
2022/08/28 08:02:45;;;;;;;;;;;;;;;29.11;60.75;99381.59;4434689;32;20022;-92
2022/08/28 08:05:38;;;;;;;;;;;;;;;29.11;60.75;99377.06;4446268;32;20322;-92
2022/08/28 08:08:03;;;;;;;;;;;;;;;29.15;60.74;99382.91;4446017;32;20325;-91
2022/08/28 08:10:28;;;;;;;;;;;;;;;29.27;60.76;99384.16;4446050;32;20035;-92
2022/08/28 08:12:53;;;;;;;;;;;;;;;29.58;60.78;99387.66;4433032;32;20001;-92
2022/08/28 08:15:19;;;;;;;;;;;;;;;29.99;60.79;99384.59;4432794;32;20339;-92
2022/08/28 08:17:44;;;;;;;;;;;;;;;30.08;60.79;99386.25;4459710;32;19988;-92
2022/08/28 08:20:09;;;;;;;;;;;;;;;30.25;60.80;99387.72;4432892;32;19977;-91
2022/08/28 08:22:34;;;;;;;;;;;;;;;30.53;60.82;99384.41;4432499;32;20004;-91
2022/08/28 08:25:03;;;;;;;;;;;;;;;30.50;60.81;99382.91;4445119;32;20039;-91
2022/08/28 08:27:28;;;;;;;;;;;;;;;30.64;60.82;99386.66;4459624;32;19989;-91
2022/08/28 08:29:54;;;;;;;;;;;;;;;30.59;60.81;99390.87;4445396;32;19992;-91
2022/08/28 08:32:19;;;;;;;;;;;;;;;30.59;60.81;99390.87;4445360;32;19993;-92
2022/08/28 08:34:48;;;;;;;;;;;;;;;30.67;60.82;99390.81;4432367;32;19997;-92
2022/08/28 08:37:13;;;;;;;;;;;;;;;30.88;60.83;99390.03;4445782;32;20349;-91
2022/08/28 08:39:40;;;;;;;;;;;;;;;30.99;60.84;99384.16;4445169;32;20014;-91
2022/08/28 08:42:06;;;;;;;;;;;;;;;31.19;60.85;99387.94;4459503;32;19978;-91
2022/08/28 08:44:32;;;;;;;;;;;;;;;31.26;60.85;99380.81;4432389;32;19992;-91
2022/08/28 08:47:09;;;;;;;;;;;;;;;31.45;60.86;99379.31;4445347;32;19988;-92
2022/08/28 08:49:35;;;;;;;;;;;;;;;31.32;60.86;99382.72;4433604;32;20055;-92
2022/08/28 08:52:10;;;;;;;;;;;;;;;31.52;60.86;99376.72;4461113;32;20005;-91
2022/08/28 08:54:38;;;;;;;;;;;;;;;31.40;60.85;99384.44;4475190;32;19985;-92
2022/08/28 08:57:03;;;;;;;;;;;;;;;31.33;60.86;99387.06;4447683;32;20353;-92
2022/08/28 08:59:30;;;;;;;;;;;;;;;31.42;60.87;99379.69;4447641;32;19990;-91
2022/08/28 09:02:26;;;;;;;;;;;;;;;31.53;60.86;99376.50;4461202;32;19973;-92
2022/08/28 09:04:52;;;;;;;;;;;;;;;31.45;60.86;99382.00;4447934;32;20377;-92
2022/08/28 09:07:21;;;;;;;;;;;;;;;31.39;60.85;99385.47;4461163;32;19993;-91
2022/08/28 09:09:48;;;;;;;;;;;;;;;31.26;60.85;99390.72;4461552;32;20360;-92
2022/08/28 09:12:17;;;;;;;;;;;;;;;31.23;60.85;99388.38;4447137;32;19989;-92
2022/08/28 09:14:42;;;;;;;;;;;;;;;31.08;60.85;99394.62;4458614;32;20034;-93
2022/08/28 09:17:07;;;;;;;;;;;;;;;31.23;60.85;99396.47;4473849;32;19969;-92
2022/08/28 09:19:32;;;;;;;;;;;;;;;31.43;60.86;99398.34;4446396;32;20318;-92
2022/08/28 09:21:58;;;;;;;;;;;;;;;31.61;60.87;99392.50;4459560;32;19995;-93
2022/08/28 09:24:27;;;;;;;;;;;;;;;31.36;60.86;99393.91;4459389;32;20337;-91
2022/08/28 09:27:17;;;;;;;;;;;;;;;31.42;60.86;99401.22;4446380;32;20004;-92
2022/08/28 09:29:42;;;;;;;;;;;;;;;31.49;60.87;99399.44;4458982;32;19988;-91
2022/08/28 09:32:20;;;;;;;;;;;;;;;31.54;60.86;99399.69;4446225;32;19973;-92
2022/08/28 09:34:59;;;;;;;;;;;;;;;31.55;60.86;99405.91;4459026;32;19985;-92
2022/08/28 09:37:24;;;;;;;;;;;;;;;31.56;60.88;99402.19;4446296;32;20372;-91
2022/08/28 09:39:49;;;;;;;;;;;;;;;31.90;60.89;99399.63;4445975;32;19973;-92
2022/08/28 09:45:20;;;;;;;;;;;;;;;32.01;60.89;99398.28;4471689;32;20012;-92
2022/08/28 09:47:48;;;;;;;;;;;;;;;32.22;60.90;99397.38;4444774;32;20002;-92
2022/08/28 09:50:55;;;;;;;;;;;;;;;32.36;60.91;99399.16;4471476;32;19973;-93
2022/08/28 09:53:14;;;;;;;;;;;;;;;32.49;60.92;99393.84;4456718;32;19985;-93
2022/08/28 09:56:11;;;;;;;;;;;;;;;;;;;;;
2022/08/28 09:58:38;;;;;;;;;;;;;;;32.50;60.92;99394.69;4471157;32;35202;-93
2022/08/28 10:01:08;;;;;;;;;;;;;;;32.50;60.92;99392.00;4444773;32;19981;-93
2022/08/28 10:03:36;;;;;;;;;;;;;;;32.60;60.93;99403.22;4457572;32;20021;-92
2022/08/28 10:06:03;;;;;;;;;;;;;;;32.71;60.93;99402.66;4457471;32;19985;-93
2022/08/28 10:08:46;;;;;;;;;;;;;;;32.91;60.94;99394.72;4444831;32;20005;-93
2022/08/28 10:11:19;;;;;;;;;;;;;;;33.11;60.95;99395.56;4457666;32;19983;-93
2022/08/28 10:13:52;;;;;;;;;;;;;;;33.32;60.96;99385.72;4444773;32;19992;-94
2022/08/28 10:16:20;;;;;;;;;;;;;;;33.55;60.97;99383.47;4444733;32;20368;-92
2022/08/28 10:18:52;;;;;;;;;;;;;;;33.42;60.97;99388.84;4457756;32;20064;-92
2022/08/28 10:21:52;;;;;;;;;;;;;;;33.13;60.95;99390.84;4457517;32;19977;-93
2022/08/28 10:24:32;;;;;;;;;;;;;;;33.07;60.94;99385.41;4457229;32;19972;-93
2022/08/28 10:27:21;;;;;;;;;;;;;;;33.12;60.95;99383.75;4457518;32;20000;-94
2022/08/28 10:29:49;;;;;;;;;;;;;;;33.05;60.95;99379.38;4457869;32;20043;-94
2022/08/28 10:32:18;;;;;;;;;;;;;;;33.19;60.95;99370.31;4444936;32;20021;-92
2022/08/28 10:35:07;;;;;;;;;;;;;;;33.09;60.95;99386.03;4444933;32;20633;-93
2022/08/28 10:37:55;;;;;;;;;;;;;;;32.80;60.93;99379.09;4445245;32;20034;-93
2022/08/28 10:40:25;;;;;;;;;;;;;;;32.73;60.94;99378.22;4449631;32;19992;-93
2022/08/28 10:43:09;;;;;;;;;;;;;;;32.80;60.93;99376.41;4444881;32;20761;-92
2022/08/28 10:45:35;;;;;;;;;;;;;;;33.04;60.95;99377.72;4472302;32;19981;-93
2022/08/28 10:48:04;;;;;;;;;;;;;;;33.15;60.95;99367.19;4452375;32;20022;-94
2022/08/28 10:50:49;;;;;;;;;;;;;;;33.24;60.97;99367.81;4445872;32;19992;-93
2022/08/28 10:53:17;;;;;;;;;;;;;;;33.32;60.96;99366.81;4457160;32;19968;-93
2022/08/28 10:55:46;;;;;;;;;;;;;;;33.27;60.96;99368.25;4457803;32;19977;-93
2022/08/28 10:58:16;;;;;;;;;;;;;;;33.16;60.96;99366.16;4457968;32;20008;-93
2022/08/28 11:00:44;;;;;;;;;;;;;;;33.17;60.96;99365.12;4445145;32;20374;-94
2022/08/28 11:03:10;;;;;;;;;;;;;;;33.24;60.96;99365.97;4458185;32;19991;-94
2022/08/28 11:05:41;;;;;;;;;;;;;;;33.52;60.97;99365.81;4445057;32;19993;-94
2022/08/28 11:08:08;;;;;;;;;;;;;;;33.67;60.98;99362.09;4444951;32;20026;-94
2022/08/28 11:10:37;;;;;;;;;;;;;;;33.71;60.99;99366.88;4445022;32;20379;-94
2022/08/28 11:13:05;;;;;;;;;;;;;;;33.29;60.96;99370.72;4457666;32;19977;-93
2022/08/28 11:15:30;;;;;;;;;;;;;;;33.59;60.97;99368.50;4445206;32;19977;-93
2022/08/28 11:17:58;;;;;;;;;;;;;;;33.60;60.97;99362.09;4472358;32;20284;-94
2022/08/28 11:21:08;;;;;;;;;;;;;;;33.61;60.98;99360.22;4444758;32;20057;-94
2022/08/28 11:23:39;;;;;;;;;;;;;;;33.61;60.98;99366.47;4454287;32;20054;-93
2022/08/28 11:26:06;;;;;;;;;;;;;;;33.67;60.98;99365.62;4444821;32;19957;-95
2022/08/28 11:28:34;;;;;;;;;;;;;;;33.66;60.98;99369.37;4444754;32;19999;-94
2022/08/28 11:31:05;;;;;;;;;;;;;;;33.85;60.99;99365.03;4457620;32;19965;-94
2022/08/28 11:33:39;;;;;;;;;;;;;;;34.00;61.00;99371.03;4457505;32;19999;-92
2022/08/28 11:36:26;;;;;;;;;;;;;;;34.22;61.01;99370.78;4456434;32;20089;-93
2022/08/28 11:38:55;;;;;;;;;;;;;;;34.13;61.01;99364.78;4427196;32;20030;-94
2022/08/28 11:41:21;;;;;;;;;;;;;;;34.01;60.99;99361.88;4457731;32;20056;-93
2022/08/28 11:44:05;;;;;;;;;;;;;;;33.85;60.99;99367.75;4457558;32;19969;-93
2022/08/28 11:46:31;;;;;;;;;;;;;;;33.91;60.99;99360.66;4458387;32;19985;-93
2022/08/28 11:48:59;;;;;;;;;;;;;;;33.65;60.98;99370.41;4445068;32;20357;-93
2022/08/28 11:51:25;;;;;;;;;;;;;;;33.58;60.98;99362.28;4445118;32;20337;-92
2022/08/28 11:54:09;;;;;;;;;;;;;;;33.65;60.98;99358.78;4458464;32;19987;-91
2022/08/28 11:56:39;;;;;;;;;;;;;;;33.64;60.98;99360.63;4458154;32;19981;-94
2022/08/28 11:59:08;;;;;;;;;;;;;;;33.62;60.98;99353.78;4212090;32;7603381;-93
2022/08/28 12:01:36;;;;;;;;;;;;;;;33.72;60.99;99346.09;4472400;32;20044;-93
2022/08/28 12:04:03;;;;;;;;;;;;;;;33.80;60.99;99357.50;4445133;32;20024;-94
2022/08/28 12:06:44;;;;;;;;;;;;;;;33.89;61.00;99349.25;4458019;32;20333;-94
2022/08/28 12:09:10;;;;;;;;;;;;;;;33.91;61.00;99348.00;4458173;32;20269;-95
2022/08/28 12:11:39;;;;;;;;;;;;;;;33.98;61.00;99338.00;4445148;32;20000;-95
2022/08/28 12:14:05;;;;;;;;;;;;;;;34.07;61.00;99349.41;4458222;32;20068;-93
2022/08/28 12:16:50;;;;;;;;;;;;;;;34.17;61.00;99339.00;4445876;32;19968;-94
2022/08/28 12:19:24;;;;;;;;;;;;;;;34.03;61.00;99349.00;4473717;32;19980;-94
2022/08/28 12:21:50;;;;;;;;;;;;;;;33.77;60.98;99344.44;4460622;32;19981;-94
2022/08/28 12:24:19;;;;;;;;;;;;;;;33.64;60.99;99343.63;4450408;32;19967;-94
2022/08/28 12:26:44;;;;;;;;;;;;;;;33.41;60.97;99347.56;4470079;32;19987;-95
2022/08/28 12:29:16;;;;;;;;;;;;;;;33.34;60.97;99343.16;4446617;32;19984;-94
2022/08/28 12:34:44;;;;;;;;;;;;;;;33.52;60.97;99344.22;4471425;32;20631;-94
2022/08/28 12:37:19;;;;;;;;;;;;;;;33.65;60.98;99332.59;4457243;32;19996;-94
2022/08/28 12:39:44;;;;;;;;;;;;;;;33.77;60.98;99335.50;4456510;32;19976;-93
2022/08/28 12:42:13;;;;;;;;;;;;;;;33.91;60.99;99333.66;4443616;32;20510;-93
2022/08/28 12:44:41;;;;;;;;;;;;;;;33.74;60.99;99334.06;4443844;32;20002;-96
2022/08/28 12:47:07;;;;;;;;;;;;;;;33.79;61.00;99333.41;4444300;32;20041;-94
2022/08/28 12:49:33;;;;;;;;;;;;;;;33.66;60.98;99330.75;4458947;32;19977;-95
2022/08/28 12:52:08;;;;;;;;;;;;;;;33.58;60.98;99329.87;4459113;32;20001;-93
2022/08/28 12:54:34;;;;;;;;;;;;;;;33.81;61.00;99326.75;4446148;32;20000;-94
2022/08/28 12:56:59;;;;;;;;;;;;;;;33.64;60.98;99336.34;4446552;32;20020;-95
2022/08/28 12:59:31;;;;;;;;;;;;;;;33.36;60.97;99331.16;4446175;32;19981;-95
2022/08/28 13:02:00;;;;;;;;;;;;;;;33.03;60.95;99335.63;4445559;32;20019;-95
2022/08/28 13:04:55;;;;;;;;;;;;;;;33.00;60.95;99319.84;4446450;32;19993;-95
2022/08/28 13:07:25;;;;;;;;;;;;;;;33.19;60.96;99329.84;4458838;32;19977;-95
2022/08/28 13:09:51;;;;;;;;;;;;;;;33.30;60.96;99331.94;4445959;32;19987;-94
2022/08/28 13:12:20;;;;;;;;;;;;;;;33.27;60.96;99322.37;4459241;32;20009;-94
2022/08/28 13:14:45;;;;;;;;;;;;;;;32.88;60.94;99325.00;4446206;32;19985;-94